Time;durP1;ratioP1;P1;durP2;ratioP2;P2;SDS_P1;SDS_P2;PMS_P1;PMS_P2;Temp;Humidity;BMP_temperature;BMP_pressure;BME280_temperature;BME280_humidity;BME280_pressure;Samples;Min_cycle;Max_cycle;Signal;HPM_P1;HPM_P2
2022/08/28 00:01:07;;;;;;;14.18;4.53;;;;;;;20.10;62.90;101274.25;4927857;28;123242;-80
2022/08/28 00:03:34;;;;;;;21.77;4.82;;;;;;;20.16;63.26;101277.84;4947379;28;120120;-80
2022/08/28 00:06:04;;;;;;;20.07;4.90;;;;;;;20.13;62.36;101271.25;4945135;28;120753;-80
2022/08/28 00:08:30;;;;;;;20.90;5.20;;;;;;;20.09;62.64;101270.72;4920258;28;122834;-80
2022/08/28 00:10:56;;;;;;;22.65;4.95;;;;;;;20.09;62.89;101278.31;4920421;28;120607;-80
2022/08/28 00:13:24;;;;;;;16.20;4.97;;;;;;;20.05;62.81;101281.34;4925837;28;122922;-80
2022/08/28 00:15:53;;;;;;;16.83;4.53;;;;;;;20.05;62.90;101281.34;4907703;28;119998;-80
2022/08/28 00:18:19;;;;;;;20.98;5.05;;;;;;;20.06;63.24;101285.66;4944051;28;121944;-80
2022/08/28 00:20:46;;;;;;;19.33;4.80;;;;;;;20.10;63.24;101282.63;4928243;28;124186;-80
2022/08/28 00:23:12;;;;;;;18.90;4.82;;;;;;;20.12;63.46;101278.09;4929835;28;119931;-80
2022/08/28 00:25:37;;;;;;;20.02;4.90;;;;;;;20.13;63.40;101282.41;4947159;28;120459;-80
2022/08/28 00:28:09;;;;;;;19.45;4.95;;;;;;;20.11;62.80;101286.91;4929837;28;123144;-80
2022/08/28 00:30:39;;;;;;;17.35;4.60;;;;;;;20.11;63.35;101276.56;4913538;28;119988;-80
2022/08/28 00:33:15;;;;;;;18.38;4.70;;;;;;;20.11;63.31;101281.34;4930810;28;122197;-80
2022/08/28 00:35:42;;;;;;;18.83;4.65;;;;;;;20.11;62.96;101284.94;4927819;28;120064;-80
2022/08/28 00:38:09;;;;;;;22.23;4.95;;;;;;;20.07;63.24;101270.47;4930854;28;121993;-81
2022/08/28 00:40:35;;;;;;;16.80;4.40;;;;;;;20.09;62.84;101279.06;4927282;28;121500;-80
2022/08/28 00:43:04;;;;;;;20.53;5.03;;;;;;;20.08;63.03;101279.56;4944165;28;120028;-80
2022/08/28 00:45:31;;;;;;;17.00;4.80;;;;;;;20.04;63.52;101267.91;4941544;28;120495;-81
2022/08/28 00:47:57;;;;;;;18.85;5.10;;;;;;;20.08;63.24;101285.16;4944435;28;120219;-81
2022/08/28 00:50:26;;;;;;;23.13;5.00;;;;;;;20.05;63.27;101267.41;4913849;28;119983;-80
2022/08/28 00:52:59;;;;;;;17.27;4.80;;;;;;;20.04;62.93;101279.81;4912274;28;120744;-80
2022/08/28 00:55:27;;;;;;;19.75;4.60;;;;;;;20.01;63.50;101278.03;4913349;28;121597;-80
2022/08/28 00:57:55;;;;;;;15.40;4.70;;;;;;;20.00;63.14;101279.31;4945317;28;120587;-81
2022/08/28 01:00:29;;;;;;;20.98;5.03;;;;;;;19.97;63.03;101276.78;4943704;28;123486;-80
2022/08/28 01:02:56;;;;;;;18.15;4.78;;;;;;;19.88;63.10;101264.59;4913336;28;120521;-80
2022/08/28 01:05:23;;;;;;;18.63;4.67;;;;;;;19.90;62.93;101264.09;4928908;28;122047;-81
2022/08/28 01:07:52;;;;;;;19.10;5.22;;;;;;;19.90;63.82;101275.25;4944582;28;121195;-80
2022/08/28 01:10:22;;;;;;;19.30;4.72;;;;;;;19.91;63.45;101273.97;4946009;28;119867;-80
2022/08/28 01:12:48;;;;;;;16.23;4.88;;;;;;;19.90;63.75;101266.88;4909165;28;120859;-81
2022/08/28 01:15:19;;;;;;;19.17;4.93;;;;;;;19.89;63.28;101276.50;4927092;28;120307;-81
2022/08/28 01:17:52;;;;;;;19.48;5.20;;;;;;;19.87;63.88;101268.66;4932545;28;120691;-81
2022/08/28 01:20:22;;;;;;;18.23;5.13;;;;;;;19.86;63.64;101266.34;4944299;28;121067;-81
2022/08/28 01:23:04;;;;;;;21.00;5.15;;;;;;;19.81;63.12;101262.28;4922879;28;121739;-80
2022/08/28 01:25:32;;;;;;;17.73;4.70;;;;;;;19.80;63.74;101268.34;4942211;28;120163;-80
2022/08/28 01:27:58;;;;;;;19.83;4.80;;;;;;;19.81;63.68;101272.66;4940507;28;120154;-81
2022/08/28 01:30:24;;;;;;;19.85;4.88;;;;;;;19.77;63.21;101266.56;4929085;28;120520;-81
2022/08/28 01:32:53;;;;;;;18.88;4.60;;;;;;;19.74;63.72;101271.13;4929103;28;121884;-80
2022/08/28 01:35:24;;;;;;;20.05;4.95;;;;;;;19.65;63.88;101256.66;4944264;28;120147;-81
2022/08/28 01:37:51;;;;;;;22.77;4.60;;;;;;;19.74;63.26;101279.47;4926420;28;120495;-81
2022/08/28 01:40:24;;;;;;;16.77;4.80;;;;;;;19.72;63.05;101272.88;4913367;28;122183;-80
2022/08/28 01:43:08;;;;;;;20.07;5.00;;;;;;;19.69;63.73;101273.88;4943381;28;121099;-81
2022/08/28 01:45:36;;;;;;;21.75;4.88;;;;;;;19.65;63.51;101273.38;4925276;28;122399;-81
2022/08/28 01:48:03;;;;;;;19.60;4.97;;;;;;;19.59;63.33;101282.44;4927869;28;120791;-81
2022/08/28 01:50:29;;;;;;;19.63;4.70;;;;;;;19.54;63.62;101262.94;4946321;28;119981;-81
2022/08/28 01:52:55;;;;;;;15.48;4.40;;;;;;;19.59;63.59;101271.31;4928916;28;120567;-81
2022/08/28 01:55:21;;;;;;;18.50;4.93;;;;;;;19.55;63.84;101270.78;4945513;28;120446;-81
2022/08/28 01:57:50;;;;;;;18.83;5.05;;;;;;;19.53;64.02;101269.72;4930087;28;119676;-81
2022/08/28 02:00:16;;;;;;;20.48;5.25;;;;;;;19.52;63.69;101271.75;4928291;28;119977;-81
2022/08/28 02:02:42;;;;;;;19.30;4.65;;;;;;;19.51;63.36;101269.47;4949271;28;123490;-81
2022/08/28 02:05:09;;;;;;;17.65;4.70;;;;;;;19.47;63.42;101269.72;4929095;28;121674;-81
2022/08/28 02:07:35;;;;;;;19.70;4.90;;;;;;;19.43;63.82;101263.63;4945320;28;120160;-81
2022/08/28 02:10:01;;;;;;;20.23;5.07;;;;;;;19.44;63.99;101276.28;4936002;28;120169;-80
2022/08/28 02:12:28;;;;;;;17.92;4.78;;;;;;;19.45;63.72;101277.78;4929617;28;123088;-81
2022/08/28 02:14:54;;;;;;;18.60;5.05;;;;;;;19.39;63.58;101268.63;4925025;28;122942;-80
2022/08/28 02:17:20;;;;;;;20.83;5.30;;;;;;;19.40;63.71;101269.41;4928420;28;120099;-81
2022/08/28 02:19:45;;;;;;;19.47;4.70;;;;;;;19.38;63.93;101272.69;4962586;28;120058;-81
2022/08/28 02:22:12;;;;;;;21.45;5.07;;;;;;;19.39;63.88;101276.97;4937333;28;120011;-81
2022/08/28 02:24:39;;;;;;;16.60;4.60;;;;;;;19.40;64.62;101270.19;4945219;28;120140;-80
2022/08/28 02:27:05;;;;;;;17.88;4.68;;;;;;;19.33;63.63;101267.84;4927833;28;124068;-80
2022/08/28 02:29:31;;;;;;;17.63;4.40;;;;;;;19.32;63.62;101266.31;4927041;28;120032;-80
2022/08/28 02:31:57;;;;;;;16.83;5.03;;;;;;;19.34;63.08;101277.72;4928834;28;121990;-80
2022/08/28 02:34:22;;;;;;;21.43;4.90;;;;;;;19.33;63.56;101276.19;4948004;28;120047;-80
2022/08/28 02:36:48;;;;;;;15.63;4.43;;;;;;;19.31;63.93;101271.13;4950039;28;119756;-80
2022/08/28 02:39:15;;;;;;;18.23;4.70;;;;;;;19.26;64.29;101268.31;4931116;28;121880;-79
2022/08/28 02:41:40;;;;;;;17.42;4.50;;;;;;;19.26;63.90;101276.66;4949045;28;121165;-80
2022/08/28 02:44:06;;;;;;;18.38;5.03;;;;;;;19.25;64.25;101266.78;4937338;28;119822;-80
2022/08/28 02:46:32;;;;;;;16.13;4.60;;;;;;;19.24;64.25;101271.59;4948568;28;122152;-80
2022/08/28 02:48:58;;;;;;;17.38;4.60;;;;;;;19.19;64.10;101269.56;4932194;28;120989;-80
2022/08/28 02:51:24;;;;;;;17.73;4.88;;;;;;;19.22;64.06;101270.56;4915901;28;122520;-80
2022/08/28 02:53:51;;;;;;;18.42;4.80;;;;;;;19.14;63.97;101264.69;4942158;28;120005;-79
2022/08/28 02:56:16;;;;;;;20.47;5.10;;;;;;;19.19;64.72;101277.13;4931400;28;126375;-80
2022/08/28 02:58:43;;;;;;;16.95;4.82;;;;;;;19.16;64.12;101278.09;4949454;28;120570;-80
2022/08/28 03:01:11;;;;;;;16.45;4.82;;;;;;;19.11;64.17;101262.16;4929313;28;121490;-80
2022/08/28 03:03:39;;;;;;;17.27;4.20;;;;;;;19.08;64.04;101261.13;4948888;28;120074;-80
2022/08/28 03:06:05;;;;;;;21.45;5.30;;;;;;;19.06;63.95;101263.63;4951865;28;120068;-80
2022/08/28 03:08:31;;;;;;;20.92;5.03;;;;;;;19.10;64.03;101268.97;4949974;28;119420;-80
2022/08/28 03:10:59;;;;;;;16.25;4.53;;;;;;;19.01;64.14;101264.38;4939346;28;122630;-80
2022/08/28 03:13:25;;;;;;;17.63;4.80;;;;;;;18.92;63.78;101262.53;4931555;28;121710;-80
2022/08/28 03:15:51;;;;;;;16.40;5.13;;;;;;;18.85;63.89;101276.13;4948397;28;119991;-80
2022/08/28 03:18:17;;;;;;;18.48;5.03;;;;;;;18.72;64.34;101262.63;4953289;28;119990;-80
2022/08/28 03:20:49;;;;;;;20.33;5.10;;;;;;;18.70;64.59;101271.47;4967956;28;121278;-80
2022/08/28 03:23:26;;;;;;;16.43;4.70;;;;;;;18.64;65.09;101267.09;4967953;28;119933;-80
2022/08/28 03:26:11;;;;;;;16.77;4.90;;;;;;;18.59;65.43;101267.78;4951387;28;120361;-80
2022/08/28 03:28:49;;;;;;;18.57;5.27;;;;;;;18.57;65.35;101259.19;4950709;28;121553;-80
2022/08/28 03:31:18;;;;;;;17.73;5.13;;;;;;;18.55;64.96;101256.16;4932505;28;122249;-80
2022/08/28 03:33:45;;;;;;;18.52;5.50;;;;;;;18.50;64.94;101240.19;4944070;28;120019;-80
2022/08/28 03:36:13;;;;;;;15.82;5.00;;;;;;;18.49;65.51;101244.22;4907829;28;119897;-80
2022/08/28 03:38:40;;;;;;;18.50;5.00;;;;;;;18.48;65.53;101249.03;4948348;28;119966;-79
2022/08/28 03:41:14;;;;;;;17.67;5.13;;;;;;;18.46;65.26;101256.31;4946272;28;121405;-80
2022/08/28 03:43:40;;;;;;;18.75;5.15;;;;;;;18.38;66.06;101242.84;4949676;28;119856;-80
2022/08/28 03:46:07;;;;;;;16.37;5.23;;;;;;;18.41;65.35;101250.19;4929998;28;121613;-80
2022/08/28 03:48:36;;;;;;;14.05;4.85;;;;;;;18.43;65.97;101266.38;4931613;28;123362;-80
2022/08/28 03:51:30;;;;;;;16.98;5.13;;;;;;;18.41;65.73;101260.56;4945855;28;120235;-80
2022/08/28 03:53:58;;;;;;;18.20;5.30;;;;;;;18.38;65.73;101259.53;4944231;28;121503;-79
2022/08/28 03:56:25;;;;;;;19.35;5.57;;;;;;;18.35;66.10;101265.28;4931040;28;120271;-80
2022/08/28 03:59:04;;;;;;;18.08;5.13;;;;;;;18.34;66.01;101258.97;4949636;28;120102;-80
2022/08/28 04:01:29;;;;;;;21.60;5.57;;;;;;;18.30;65.97;101255.66;4946701;28;128059;-80
2022/08/28 04:03:56;;;;;;;18.08;5.28;;;;;;;18.27;66.25;101251.09;4938353;28;120154;-80
2022/08/28 04:06:22;;;;;;;18.80;5.30;;;;;;;18.32;65.72;101258.72;4929612;28;122369;-80
2022/08/28 04:08:47;;;;;;;17.30;5.40;;;;;;;18.30;66.25;101257.69;4930197;28;123407;-79
2022/08/28 04:11:45;;;;;;;17.00;5.40;;;;;;;18.31;66.46;101261.97;4922752;28;119709;-79
2022/08/28 04:14:11;;;;;;;16.93;5.00;;;;;;;18.33;65.98;101265.03;4939672;28;121907;-80
2022/08/28 04:16:37;;;;;;;16.07;5.00;;;;;;;18.33;66.45;101260.25;4939341;28;120268;-80
2022/08/28 04:19:02;;;;;;;17.77;5.25;;;;;;;18.34;66.00;101261.75;4957714;28;121958;-80
2022/08/28 04:21:28;;;;;;;15.90;5.27;;;;;;;18.32;66.17;101253.16;4947404;28;122522;-79
2022/08/28 04:23:54;;;;;;;17.67;5.07;;;;;;;18.30;66.31;101249.34;4924004;28;120106;-79
2022/08/28 04:26:25;;;;;;;19.30;5.43;;;;;;;18.33;66.04;101256.69;4929766;28;121880;-79
2022/08/28 04:28:51;;;;;;;18.27;5.10;;;;;;;18.33;65.86;101265.78;4946061;28;123035;-79
2022/08/28 04:31:17;;;;;;;23.35;5.47;;;;;;;18.27;65.97;101256.66;4926434;28;120120;-79
2022/08/28 04:33:43;;;;;;;18.35;5.70;;;;;;;18.30;66.46;101254.91;4947879;28;120146;-79
2022/08/28 04:36:12;;;;;;;18.17;5.43;;;;;;;18.29;66.10;101259.69;4935693;28;120190;-79
2022/08/28 04:38:40;;;;;;;19.58;5.45;;;;;;;18.27;66.08;101256.66;4911290;28;122548;-78
2022/08/28 04:41:08;;;;;;;19.77;5.25;;;;;;;18.31;66.49;101251.63;4911332;28;123076;-79
2022/08/28 04:43:42;;;;;;;20.25;5.57;;;;;;;18.35;67.01;101256.97;4927005;28;120365;-79
2022/08/28 04:46:11;;;;;;;16.50;4.90;;;;;;;18.32;66.65;101247.59;4922239;28;120537;-79
2022/08/28 04:48:37;;;;;;;21.08;5.60;;;;;;;18.40;66.39;101259.03;4939129;28;119899;-78
2022/08/28 04:51:08;;;;;;;19.83;5.30;;;;;;;18.43;66.04;101252.50;4930432;28;119982;-79
2022/08/28 04:53:36;;;;;;;19.60;5.35;;;;;;;18.46;66.46;101250.78;4928781;28;119556;-78
2022/08/28 04:56:05;;;;;;;16.70;4.80;;;;;;;18.44;66.38;101244.91;4939693;28;120377;-79
2022/08/28 04:58:32;;;;;;;19.08;5.20;;;;;;;18.49;66.02;101247.00;4947801;28;119698;-79
2022/08/28 05:01:00;;;;;;;18.53;5.13;;;;;;;18.48;65.93;101242.72;4954815;28;119880;-79
2022/08/28 05:03:26;;;;;;;17.13;5.20;;;;;;;18.50;65.99;101245.75;4910610;28;120312;-79
2022/08/28 05:05:53;;;;;;;20.03;4.87;;;;;;;18.52;65.37;101248.78;4920951;28;120263;-79
2022/08/28 05:08:21;;;;;;;16.95;5.07;;;;;;;18.54;65.92;101249.81;4929206;28;124300;-79
2022/08/28 05:10:47;;;;;;;16.95;5.60;;;;;;;18.57;65.55;101251.63;4909700;28;119778;-79
2022/08/28 05:13:14;;;;;;;19.37;5.67;;;;;;;18.60;65.75;101247.09;4921545;28;122365;-79
2022/08/28 05:15:43;;;;;;;18.75;5.28;;;;;;;18.63;65.60;101257.25;4933939;28;120583;-79
2022/08/28 05:18:10;;;;;;;17.97;5.70;;;;;;;18.60;65.87;101249.88;4938795;28;120012;-78
2022/08/28 05:20:37;;;;;;;17.15;5.40;;;;;;;18.67;66.14;101255.00;4962506;28;123985;-79
2022/08/28 05:23:04;;;;;;;16.23;5.28;;;;;;;18.72;65.90;101257.09;4942367;28;120044;-79
2022/08/28 05:25:35;;;;;;;16.52;5.05;;;;;;;18.76;65.95;101262.41;4933826;28;119850;-79
2022/08/28 05:28:00;;;;;;;19.63;5.75;;;;;;;18.79;66.64;101264.19;4930437;28;121263;-78
2022/08/28 05:30:26;;;;;;;15.93;5.13;;;;;;;18.84;65.93;101264.25;4930409;28;120234;-79
2022/08/28 05:32:52;;;;;;;14.83;5.07;;;;;;;18.88;66.25;101269.56;4928519;28;119726;-79
2022/08/28 05:35:18;;;;;;;18.90;5.50;;;;;;;18.92;66.15;101270.84;4934424;28;120215;-79
2022/08/28 05:37:44;;;;;;;17.17;5.15;;;;;;;18.96;65.82;101265.09;4946179;28;120085;-79
2022/08/28 05:40:13;;;;;;;15.82;5.30;;;;;;;18.98;66.06;101262.59;4932459;28;121887;-79
2022/08/28 05:42:39;;;;;;;17.10;5.20;;;;;;;19.07;67.19;101267.94;4927333;28;119722;-79
2022/08/28 05:45:05;;;;;;;17.73;5.47;;;;;;;19.12;65.88;101272.00;4929452;28;121881;-79
2022/08/28 05:47:34;;;;;;;16.70;5.00;;;;;;;19.16;65.85;101269.75;4945947;28;123343;-80
2022/08/28 05:50:00;;;;;;;15.43;5.18;;;;;;;19.22;67.12;101267.78;4928093;28;121848;-79
2022/08/28 05:52:27;;;;;;;16.13;5.13;;;;;;;19.29;65.91;101264.53;4909328;28;121963;-79
2022/08/28 05:54:53;;;;;;;20.03;5.00;;;;;;;19.36;66.54;101258.50;4929900;28;122630;-80
2022/08/28 05:57:18;;;;;;;17.87;4.97;;;;;;;19.45;66.48;101266.66;4944405;28;120129;-79
2022/08/28 05:59:44;;;;;;;15.90;5.23;;;;;;;19.51;66.01;101273.00;4914424;28;122202;-79
2022/08/28 06:02:10;;;;;;;20.20;5.50;;;;;;;19.60;66.30;101274.84;4946794;28;119914;-78
2022/08/28 06:04:38;;;;;;;16.35;5.05;;;;;;;19.65;65.87;101270.59;4928048;28;120430;-79
2022/08/28 06:07:15;;;;;;;16.42;5.25;;;;;;;19.65;65.10;101265.03;4930628;28;120045;-79
2022/08/28 06:09:41;;;;;;;17.35;5.15;;;;;;;19.72;65.40;101259.72;4945640;28;119940;-79
2022/08/28 06:12:07;;;;;;;18.48;5.30;;;;;;;19.81;65.59;101264.31;4946941;28;119779;-79
2022/08/28 06:14:33;;;;;;;17.85;5.53;;;;;;;19.91;64.55;101269.16;4926038;28;122918;-79
2022/08/28 06:17:00;;;;;;;16.23;5.20;;;;;;;19.96;65.04;101270.44;4928220;28;119900;-80
2022/08/28 06:19:28;;;;;;;14.88;4.90;;;;;;;20.04;65.44;101270.72;4933710;28;120738;-80
2022/08/28 06:21:56;;;;;;;16.58;5.13;;;;;;;20.07;64.21;101270.47;4942093;28;120695;-80
2022/08/28 06:24:23;;;;;;;18.10;5.20;;;;;;;20.14;64.98;101269.22;4929736;28;119988;-80
2022/08/28 06:26:48;;;;;;;17.45;5.10;;;;;;;20.09;65.05;101259.56;4925741;28;122825;-79
2022/08/28 06:29:16;;;;;;;17.77;5.10;;;;;;;20.27;64.22;101277.09;4929696;28;120209;-79
2022/08/28 06:31:41;;;;;;;16.38;5.18;;;;;;;20.34;65.16;101276.59;4908092;28;122864;-79
2022/08/28 06:34:08;;;;;;;16.73;5.32;;;;;;;20.36;63.72;101271.31;4927979;28;122998;-79
2022/08/28 06:36:36;;;;;;;17.20;5.50;;;;;;;20.40;63.50;101280.16;4944470;28;119982;-79
2022/08/28 06:39:04;;;;;;;16.00;5.00;;;;;;;20.44;64.10;101275.88;4929434;28;120765;-79
2022/08/28 06:41:31;;;;;;;17.02;5.47;;;;;;;20.46;64.73;101276.16;4925032;28;120450;-78
2022/08/28 06:43:57;;;;;;;18.83;5.15;;;;;;;20.54;64.55;101274.38;4913348;28;120283;-79
2022/08/28 06:46:23;;;;;;;18.55;5.30;;;;;;;20.65;63.65;101282.00;4927929;28;123206;-79
2022/08/28 06:48:50;;;;;;;18.20;5.53;;;;;;;20.74;64.09;101292.88;4942987;28;119732;-79
2022/08/28 06:51:16;;;;;;;18.27;5.47;;;;;;;20.81;63.19;101281.22;4950444;28;120480;-79
2022/08/28 06:53:44;;;;;;;16.92;5.55;;;;;;;20.83;63.62;101272.38;4946045;28;123704;-79
2022/08/28 06:56:18;;;;;;;18.73;5.40;;;;;;;20.92;63.21;101279.69;4928411;28;120025;-79
2022/08/28 06:58:46;;;;;;;17.08;4.93;;;;;;;20.92;62.03;101285.28;4909597;28;122955;-79
2022/08/28 07:01:22;;;;;;;13.18;4.70;;;;;;;20.93;62.76;101287.56;4926063;28;123087;-79
2022/08/28 07:03:52;;;;;;;15.80;4.40;;;;;;;20.94;61.40;101291.09;4933298;28;121060;-79
2022/08/28 07:06:20;;;;;;;16.15;4.93;;;;;;;20.91;62.10;101280.97;4923810;28;121502;-80
2022/08/28 07:08:46;;;;;;;19.97;5.03;;;;;;;20.95;61.94;101270.31;4912743;28;120470;-79
2022/08/28 07:11:38;;;;;;;17.08;5.07;;;;;;;21.05;62.45;101283.47;4913034;28;120549;-78
2022/08/28 07:14:05;;;;;;;21.17;5.10;;;;;;;21.13;62.06;101278.16;4934802;28;121455;-79
2022/08/28 07:16:36;;;;;;;14.63;4.87;;;;;;;21.20;60.85;101288.78;4928075;28;120499;-78
2022/08/28 07:19:04;;;;;;;14.85;4.78;;;;;;;21.26;61.38;101291.59;4956705;28;120596;-79
2022/08/28 07:21:32;;;;;;;16.07;4.87;;;;;;;21.24;60.57;101275.38;4948899;28;123186;-79
2022/08/28 07:23:57;;;;;;;14.40;4.37;;;;;;;21.29;60.61;101282.19;4927907;28;120117;-79
2022/08/28 07:26:24;;;;;;;13.67;4.90;;;;;;;21.33;60.67;101296.66;4946509;28;120526;-79
2022/08/28 07:28:53;;;;;;;16.95;4.65;;;;;;;21.35;60.90;101288.53;4943419;28;124376;-79
2022/08/28 07:31:25;;;;;;;14.77;4.57;;;;;;;21.39;60.09;101278.63;4928363;28;122106;-79
2022/08/28 07:33:53;;;;;;;13.40;4.45;;;;;;;21.48;60.28;101290.78;4910384;28;123507;-80
2022/08/28 07:36:21;;;;;;;13.60;4.65;;;;;;;21.50;59.77;101283.41;4925975;28;121430;-79
2022/08/28 07:38:47;;;;;;;15.32;4.93;;;;;;;21.55;59.04;101293.06;4909338;28;122419;-79
2022/08/28 07:41:14;;;;;;;16.00;4.70;;;;;;;21.56;59.25;101291.78;4941752;28;123038;-80
2022/08/28 07:46:25;;;;;;;15.30;4.85;;;;;;;21.67;60.01;101289.69;4941454;28;121077;-79
2022/08/28 07:48:51;;;;;;;16.23;5.15;;;;;;;21.79;59.69;101293.22;4939973;28;121572;-79
2022/08/28 07:51:17;;;;;;;16.70;4.60;;;;;;;21.94;58.84;101281.72;4942720;28;121494;-79
2022/08/28 07:53:43;;;;;;;18.02;4.63;;;;;;;21.98;58.05;101288.53;4942376;28;121196;-79
2022/08/28 07:56:10;;;;;;;14.80;4.40;;;;;;;22.10;59.21;101292.09;4919950;28;121835;-79
2022/08/28 07:58:37;;;;;;;15.45;4.90;;;;;;;22.26;58.48;101290.47;4938201;28;120998;-79
2022/08/28 08:01:03;;;;;;;14.50;4.50;;;;;;;22.38;58.76;101297.50;4937456;28;122407;-78
2022/08/28 08:03:30;;;;;;;13.25;4.20;;;;;;;22.69;56.81;101301.84;4941433;28;121462;-78
2022/08/28 08:06:00;;;;;;;12.73;4.13;;;;;;;22.84;55.88;101299.47;4906007;28;123253;-80
2022/08/28 08:08:26;;;;;;;14.18;4.30;;;;;;;22.82;54.81;101299.25;4942275;28;121311;-78
2022/08/28 08:11:04;;;;;;;11.80;4.40;;;;;;;22.95;55.74;101304.97;4942300;28;121753;-78
2022/08/28 08:13:31;;;;;;;14.55;4.63;;;;;;;23.00;56.65;101305.44;4930795;28;121793;-79
2022/08/28 08:16:32;;;;;;;17.97;4.83;;;;;;;23.20;54.79;101305.78;4938734;28;122102;-79
2022/08/28 08:18:58;;;;;;;15.40;4.77;;;;;;;23.26;53.89;101300.88;4890359;28;121913;-80
2022/08/28 08:21:47;;;;;;;14.20;4.65;;;;;;;23.45;55.01;101305.78;4937169;28;121885;-79
2022/08/28 08:24:19;;;;;;;12.88;4.40;;;;;;;23.51;54.60;101298.81;4942063;28;122550;-80
2022/08/28 08:26:52;;;;;;;12.73;4.67;;;;;;;23.47;53.57;101309.56;4942880;28;122424;-80
2022/08/28 08:29:19;;;;;;;14.25;4.45;;;;;;;23.39;54.97;101297.41;4924697;28;123046;-80
2022/08/28 08:31:52;;;;;;;14.52;4.47;;;;;;;23.47;55.58;101306.75;4908577;28;121366;-80
2022/08/28 08:34:18;;;;;;;14.52;4.75;;;;;;;23.55;55.09;101313.28;4924696;28;122328;-79
2022/08/28 08:36:44;;;;;;;15.03;4.77;;;;;;;23.59;53.85;101313.00;4945242;28;122363;-81
2022/08/28 08:39:09;;;;;;;14.90;4.53;;;;;;;23.44;53.93;101316.22;4940512;28;123536;-81
2022/08/28 08:41:48;;;;;;;15.70;4.60;;;;;;;23.45;54.57;101319.75;4937770;28;124549;-81
2022/08/28 08:44:23;;;;;;;13.23;4.13;;;;;;;23.60;55.09;101319.38;4939862;28;122603;-80
2022/08/28 08:47:10;;;;;;;13.77;4.55;;;;;;;23.73;55.22;101320.22;4942019;28;125788;-81
2022/08/28 08:49:56;;;;;;;13.57;4.30;;;;;;;23.78;55.40;101316.59;4956793;28;122821;-82
2022/08/28 08:52:34;;;;;;;13.33;4.57;;;;;;;23.80;54.21;101316.06;4925833;28;123710;-80
2022/08/28 08:55:30;;;;;;;12.20;4.28;;;;;;;23.71;52.99;101322.03;4939329;28;121910;-78
2022/08/28 08:58:10;;;;;;;11.93;4.25;;;;;;;23.49;53.58;101318.19;4961712;28;124920;-79
2022/08/28 09:01:13;;;;;;;14.15;4.78;;;;;;;23.57;53.56;101323.97;4935783;28;122160;-79
2022/08/28 09:04:00;;;;;;;12.93;4.57;;;;;;;23.68;52.78;101323.88;4916076;28;123368;-79
2022/08/28 09:06:34;;;;;;;14.82;4.47;;;;;;;23.86;53.12;101323.13;4955498;28;122553;-78
2022/08/28 09:09:05;;;;;;;13.47;4.57;;;;;;;23.96;52.45;101317.16;4936150;28;122745;-79
2022/08/28 09:11:40;;;;;;;12.73;4.27;;;;;;;23.97;52.92;101325.03;4937619;28;123745;-79
2022/08/28 09:14:31;;;;;;;13.40;4.20;;;;;;;24.00;52.99;101309.19;4953275;28;123365;-79
2022/08/28 09:16:58;;;;;;;16.65;5.00;;;;;;;24.06;52.36;101324.66;4954269;28;122440;-78
2022/08/28 09:19:27;;;;;;;12.97;4.67;;;;;;;23.99;51.59;101319.66;4905936;28;124094;-78
2022/08/28 09:21:52;;;;;;;13.87;4.70;;;;;;;23.95;53.09;101322.00;4958309;28;122818;-79
2022/08/28 09:24:18;;;;;;;14.30;4.77;;;;;;;24.12;54.38;101318.97;4903655;28;125828;-78
2022/08/28 09:26:55;;;;;;;10.73;4.78;;;;;;;24.29;51.79;101316.72;4943084;28;122420;-79
2022/08/28 09:29:27;;;;;;;13.52;4.60;;;;;;;24.35;50.45;101322.25;4900717;28;123188;-79
2022/08/28 09:31:53;;;;;;;13.00;4.60;;;;;;;24.27;51.31;101324.88;4916223;28;123250;-78
2022/08/28 09:34:30;;;;;;;13.73;4.30;;;;;;;24.16;51.01;101322.25;4901141;28;123560;-79
2022/08/28 09:36:59;;;;;;;13.43;4.25;;;;;;;24.19;52.89;101321.19;4933651;28;122454;-79
2022/08/28 09:39:24;;;;;;;13.70;4.47;;;;;;;24.34;53.25;101318.69;4899451;28;125585;-79
2022/08/28 09:44:59;;;;;;;10.98;4.22;;;;;;;24.63;50.58;101317.00;4918389;28;123228;-78
2022/08/28 09:47:59;;;;;;;12.75;4.30;;;;;;;24.58;50.51;101317.81;4900890;28;122291;-79
2022/08/28 09:50:41;;;;;;;12.20;4.65;;;;;;;24.40;51.50;101319.38;4917618;28;122575;-79
2022/08/28 09:53:12;;;;;;;11.38;4.38;;;;;;;24.38;51.15;101313.53;4915725;28;125232;-78
2022/08/28 09:55:54;;;;;;;12.55;4.35;;;;;;;24.39;53.31;101317.88;4917628;28;122389;-79
2022/08/28 09:58:22;;;;;;;12.35;4.47;;;;;;;24.48;54.07;101311.84;4932399;28;123022;-78
2022/08/28 10:00:57;;;;;;;12.82;4.35;;;;;;;24.65;51.75;101310.84;4918197;28;123262;-78
2022/08/28 10:03:36;;;;;;;10.48;3.90;;;;;;;24.89;50.58;101309.94;4931990;28;122752;-79
2022/08/28 10:06:25;;;;;;;11.73;4.10;;;;;;;25.07;50.33;101306.31;4918840;28;123003;-78
2022/08/28 10:09:03;;;;;;;11.52;4.43;;;;;;;25.09;49.80;101304.50;4905154;28;124466;-79
2022/08/28 10:11:39;;;;;;;12.65;4.28;;;;;;;25.07;49.68;101301.47;4934242;28;122284;-79
2022/08/28 10:14:20;;;;;;;14.10;4.60;;;;;;;25.06;50.61;101305.56;4932546;28;123614;-79
2022/08/28 10:17:07;;;;;;;10.50;3.90;;;;;;;25.13;50.91;101311.84;4933500;28;123334;-79
2022/08/28 10:20:02;;;;;;;12.00;4.28;;;;;;;25.15;49.06;101317.69;4918068;28;122371;-79
2022/08/28 10:22:42;;;;;;;13.70;4.40;;;;;;;24.99;50.02;101323.03;4914725;28;122785;-78
2022/08/28 10:25:19;;;;;;;14.93;4.60;;;;;;;24.76;50.33;101319.06;4901228;28;123823;-78
2022/08/28 10:28:12;;;;;;;15.25;4.43;;;;;;;24.58;51.51;101317.81;4938126;28;123206;-79
2022/08/28 10:30:50;;;;;;;10.30;4.20;;;;;;;24.55;51.98;101313.28;4955045;28;122269;-78
2022/08/28 10:33:26;;;;;;;10.63;4.03;;;;;;;24.55;51.46;101316.06;4945322;28;123353;-78
2022/08/28 10:36:02;;;;;;;14.52;4.35;;;;;;;24.55;52.61;101306.91;4920170;28;123570;-78
2022/08/28 10:38:40;;;;;;;10.97;4.10;;;;;;;24.71;52.20;101319.91;4923359;28;123124;-79
2022/08/28 10:41:09;;;;;;;10.37;3.93;;;;;;;24.81;50.64;101329.44;4905726;28;122674;-79
2022/08/28 10:43:48;;;;;;;11.30;3.97;;;;;;;24.77;49.38;101329.00;4938254;28;122739;-79
2022/08/28 10:46:35;;;;;;;12.10;4.40;;;;;;;24.63;50.91;101324.66;4938641;28;122979;-79
2022/08/28 10:49:08;;;;;;;11.65;4.60;;;;;;;24.51;51.77;101318.44;4939615;28;122722;-79
2022/08/28 10:51:40;;;;;;;11.80;4.43;;;;;;;24.52;53.51;101324.81;4940412;28;124883;-78
2022/08/28 10:54:15;;;;;;;11.88;4.20;;;;;;;24.59;52.31;101310.16;4937077;28;122321;-78
2022/08/28 10:56:52;;;;;;;13.20;4.60;;;;;;;24.74;53.28;101313.22;4912966;28;122758;-78
2022/08/28 10:59:17;;;;;;;12.55;4.60;;;;;;;24.92;52.80;101322.91;4943368;28;122375;-79
2022/08/28 11:01:45;;;;;;;12.65;4.22;;;;;;;25.04;51.43;101308.16;4942596;28;124266;-79
2022/08/28 11:04:28;;;;;;;13.17;4.63;;;;;;;25.14;51.16;101311.31;4941670;28;122478;-79
2022/08/28 11:07:04;;;;;;;11.47;4.10;;;;;;;25.19;50.66;101324.50;4925974;28;123068;-79
2022/08/28 11:09:38;;;;;;;9.15;3.80;;;;;;;25.09;49.33;101326.97;4925188;28;123123;-80
2022/08/28 11:12:15;;;;;;;15.27;4.45;;;;;;;24.96;50.72;101324.09;4940890;28;123754;-79
2022/08/28 11:14:44;;;;;;;12.25;3.85;;;;;;;24.95;51.41;101319.78;4943637;28;122342;-79
2022/08/28 11:17:26;;;;;;;10.00;3.80;;;;;;;25.08;51.11;101314.22;4946212;28;124582;-78
2022/08/28 11:20:23;;;;;;;11.75;4.03;;;;;;;25.17;50.05;101315.09;4942695;28;123193;-79
2022/08/28 11:23:08;;;;;;;10.00;3.90;;;;;;;25.13;48.65;101320.28;4944511;28;122568;-79
2022/08/28 11:25:40;;;;;;;12.50;4.40;;;;;;;25.05;51.29;101331.34;4945178;28;122574;-79
2022/08/28 11:28:12;;;;;;;10.00;3.65;;;;;;;24.98;50.93;101321.50;4942612;28;122182;-79
2022/08/28 11:31:08;;;;;;;14.25;4.13;;;;;;;25.04;51.70;101318.63;4933710;28;122046;-79